sensor_id;sensor_type;location;lat;lon;timestamp;pressure;altitude;pressure_sealevel;temperature;humidity
596;BME280;19946;49.306;11.350;2022-10-13T00:01:45;96924.59;;;7.88;100.00
596;BME280;19946;49.306;11.350;2022-10-13T00:04:45;96937.69;;;7.85;100.00
596;BME280;19946;49.306;11.350;2022-10-13T00:07:45;96929.53;;;7.91;100.00
596;BME280;19946;49.306;11.350;2022-10-13T00:10:48;96938.66;;;8.10;100.00
596;BME280;19946;49.306;11.350;2022-10-13T00:14:09;96934.28;;;8.23;100.00
596;BME280;19946;49.306;11.350;2022-10-13T00:17:09;96939.16;;;8.27;100.00
596;BME280;19946;49.306;11.350;2022-10-13T00:20:10;96939.16;;;8.15;100.00
596;BME280;19946;49.306;11.350;2022-10-13T00:23:11;96923.88;;;8.12;100.00
596;BME280;19946;49.306;11.350;2022-10-13T00:26:14;96932.44;;;8.25;100.00
596;BME280;19946;49.306;11.350;2022-10-13T00:29:15;96930.09;;;8.22;100.00
596;BME280;19946;49.306;11.350;2022-10-13T00:32:15;96926.69;;;8.34;100.00
596;BME280;19946;49.306;11.350;2022-10-13T00:35:16;96930.63;;;8.39;100.00
596;BME280;19946;49.306;11.350;2022-10-13T00:38:18;96942.16;;;8.34;100.00
596;BME280;19946;49.306;11.350;2022-10-13T00:41:20;96933.91;;;8.29;100.00
596;BME280;19946;49.306;11.350;2022-10-13T00:48:00;96925.84;;;8.33;100.00
596;BME280;19946;49.306;11.350;2022-10-13T00:51:01;96924.94;;;8.34;100.00
596;BME280;19946;49.306;11.350;2022-10-13T00:54:02;96931.09;;;8.06;100.00
596;BME280;19946;49.306;11.350;2022-10-13T00:57:05;96929.16;;;7.97;100.00
596;BME280;19946;49.306;11.350;2022-10-13T01:00:08;96929.66;;;8.02;100.00
596;BME280;19946;49.306;11.350;2022-10-13T01:03:08;96917.88;;;7.86;100.00
596;BME280;19946;49.306;11.350;2022-10-13T01:06:09;96919.53;;;7.74;100.00
596;BME280;19946;49.306;11.350;2022-10-13T01:09:12;96928.25;;;7.59;100.00
596;BME280;19946;49.306;11.350;2022-10-13T01:12:24;96925.84;;;7.43;100.00
596;BME280;19946;49.306;11.350;2022-10-13T01:15:37;96925.66;;;7.19;100.00
596;BME280;19946;49.306;11.350;2022-10-13T01:18:52;96935.91;;;7.07;100.00
596;BME280;19946;49.306;11.350;2022-10-13T01:22:19;96936.66;;;6.94;100.00
596;BME280;19946;49.306;11.350;2022-10-13T01:25:47;96945.44;;;6.92;100.00
596;BME280;19946;49.306;11.350;2022-10-13T01:36:14;96929.03;;;6.93;100.00
596;BME280;19946;49.306;11.350;2022-10-13T01:39:39;96937.25;;;6.85;100.00
596;BME280;19946;49.306;11.350;2022-10-13T01:42:49;96930.84;;;6.78;100.00
596;BME280;19946;49.306;11.350;2022-10-13T01:46:00;96920.06;;;6.86;100.00
596;BME280;19946;49.306;11.350;2022-10-13T01:49:06;96926.69;;;6.90;100.00
596;BME280;19946;49.306;11.350;2022-10-13T01:52:14;96921.16;;;6.82;100.00
596;BME280;19946;49.306;11.350;2022-10-13T01:55:16;96919.53;;;6.81;100.00
596;BME280;19946;49.306;11.350;2022-10-13T01:58:16;96916.22;;;6.79;100.00
596;BME280;19946;49.306;11.350;2022-10-13T02:04:52;96904.19;;;7.06;100.00
596;BME280;19946;49.306;11.350;2022-10-13T02:08:03;96903.22;;;7.21;100.00
596;BME280;19946;49.306;11.350;2022-10-13T02:11:17;96905.53;;;7.39;100.00
596;BME280;19946;49.306;11.350;2022-10-13T02:14:25;96897.72;;;7.53;100.00
596;BME280;19946;49.306;11.350;2022-10-13T02:17:27;96902.81;;;7.67;100.00
596;BME280;19946;49.306;11.350;2022-10-13T02:20:29;96911.94;;;7.58;100.00
596;BME280;19946;49.306;11.350;2022-10-13T02:23:30;96893.56;;;7.77;100.00
596;BME280;19946;49.306;11.350;2022-10-13T02:26:32;96891.59;;;7.93;100.00
596;BME280;19946;49.306;11.350;2022-10-13T02:29:54;96889.72;;;7.83;100.00
596;BME280;19946;49.306;11.350;2022-10-13T02:33:00;96878.59;;;7.82;100.00
596;BME280;19946;49.306;11.350;2022-10-13T02:36:01;96879.13;;;7.87;100.00
596;BME280;19946;49.306;11.350;2022-10-13T02:39:01;96878.59;;;7.95;100.00
596;BME280;19946;49.306;11.350;2022-10-13T02:42:02;96880.88;;;7.87;100.00
596;BME280;19946;49.306;11.350;2022-10-13T02:45:03;96860.84;;;7.78;100.00
596;BME280;19946;49.306;11.350;2022-10-13T02:48:03;96877.16;;;7.78;100.00
596;BME280;19946;49.306;11.350;2022-10-13T02:51:04;96889.81;;;7.56;100.00
596;BME280;19946;49.306;11.350;2022-10-13T02:54:04;96894.00;;;7.44;100.00
596;BME280;19946;49.306;11.350;2022-10-13T02:57:04;96880.84;;;7.61;100.00
596;BME280;19946;49.306;11.350;2022-10-13T03:00:07;96884.97;;;7.64;100.00
596;BME280;19946;49.306;11.350;2022-10-13T03:03:10;96883.53;;;7.73;100.00
596;BME280;19946;49.306;11.350;2022-10-13T03:06:10;96876.75;;;7.97;100.00
596;BME280;19946;49.306;11.350;2022-10-13T03:09:10;96883.75;;;7.95;100.00
596;BME280;19946;49.306;11.350;2022-10-13T03:12:12;96888.91;;;7.95;100.00
596;BME280;19946;49.306;11.350;2022-10-13T03:15:12;96881.16;;;8.20;100.00
596;BME280;19946;49.306;11.350;2022-10-13T03:18:13;96883.13;;;8.29;100.00
596;BME280;19946;49.306;11.350;2022-10-13T03:21:14;96877.66;;;8.34;100.00
596;BME280;19946;49.306;11.350;2022-10-13T03:24:14;96886.13;;;8.36;100.00
596;BME280;19946;49.306;11.350;2022-10-13T03:27:15;96888.69;;;8.36;100.00
596;BME280;19946;49.306;11.350;2022-10-13T03:30:15;96882.22;;;8.43;100.00
596;BME280;19946;49.306;11.350;2022-10-13T03:33:15;96877.88;;;8.44;100.00
596;BME280;19946;49.306;11.350;2022-10-13T03:36:16;96883.13;;;8.42;100.00
596;BME280;19946;49.306;11.350;2022-10-13T03:39:18;96885.06;;;8.51;100.00
596;BME280;19946;49.306;11.350;2022-10-13T03:42:19;96888.88;;;8.58;100.00
596;BME280;19946;49.306;11.350;2022-10-13T03:45:20;96888.56;;;8.63;100.00
596;BME280;19946;49.306;11.350;2022-10-13T03:48:21;96884.81;;;8.67;100.00
596;BME280;19946;49.306;11.350;2022-10-13T03:51:22;96892.03;;;8.74;100.00
596;BME280;19946;49.306;11.350;2022-10-13T03:54:24;96879.81;;;8.76;100.00
596;BME280;19946;49.306;11.350;2022-10-13T03:57:26;96879.13;;;8.74;100.00
596;BME280;19946;49.306;11.350;2022-10-13T04:00:27;96884.06;;;8.77;100.00
596;BME280;19946;49.306;11.350;2022-10-13T04:03:27;96881.47;;;8.77;100.00
596;BME280;19946;49.306;11.350;2022-10-13T04:06:29;96882.72;;;8.85;100.00
596;BME280;19946;49.306;11.350;2022-10-13T04:09:30;96879.69;;;8.91;100.00
596;BME280;19946;49.306;11.350;2022-10-13T04:12:30;96863.47;;;8.89;100.00
596;BME280;19946;49.306;11.350;2022-10-13T04:15:38;96881.94;;;8.95;100.00
596;BME280;19946;49.306;11.350;2022-10-13T04:18:39;96877.59;;;8.96;100.00
596;BME280;19946;49.306;11.350;2022-10-13T04:21:40;96873.38;;;8.95;100.00
596;BME280;19946;49.306;11.350;2022-10-13T04:24:41;96875.63;;;8.99;100.00
596;BME280;19946;49.306;11.350;2022-10-13T04:27:41;96879.25;;;8.97;100.00
596;BME280;19946;49.306;11.350;2022-10-13T04:30:41;96870.56;;;8.98;100.00
596;BME280;19946;49.306;11.350;2022-10-13T04:33:42;96872.81;;;9.02;100.00
596;BME280;19946;49.306;11.350;2022-10-13T04:36:43;96864.69;;;8.96;100.00
596;BME280;19946;49.306;11.350;2022-10-13T04:39:43;96860.47;;;8.95;100.00
596;BME280;19946;49.306;11.350;2022-10-13T04:42:44;96859.38;;;8.86;100.00
596;BME280;19946;49.306;11.350;2022-10-13T04:45:44;96852.44;;;8.87;100.00
596;BME280;19946;49.306;11.350;2022-10-13T04:48:46;96852.66;;;8.84;100.00
596;BME280;19946;49.306;11.350;2022-10-13T04:51:47;96841.00;;;8.78;100.00
596;BME280;19946;49.306;11.350;2022-10-13T04:54:48;96842.53;;;8.81;100.00
596;BME280;19946;49.306;11.350;2022-10-13T04:57:48;96835.72;;;8.79;100.00
596;BME280;19946;49.306;11.350;2022-10-13T05:00:49;96829.63;;;8.81;100.00
596;BME280;19946;49.306;11.350;2022-10-13T05:03:54;96839.22;;;8.78;100.00
596;BME280;19946;49.306;11.350;2022-10-13T05:06:55;96852.50;;;8.74;100.00
596;BME280;19946;49.306;11.350;2022-10-13T05:09:55;96833.91;;;8.69;100.00
596;BME280;19946;49.306;11.350;2022-10-13T05:12:56;96831.66;;;8.64;100.00
596;BME280;19946;49.306;11.350;2022-10-13T05:15:56;96846.94;;;8.55;100.00
596;BME280;19946;49.306;11.350;2022-10-13T05:18:57;96833.00;;;8.57;100.00
596;BME280;19946;49.306;11.350;2022-10-13T05:21:57;96838.78;;;8.61;100.00
596;BME280;19946;49.306;11.350;2022-10-13T05:24:57;96838.69;;;8.62;100.00
596;BME280;19946;49.306;11.350;2022-10-13T05:27:58;96825.25;;;8.57;100.00
596;BME280;19946;49.306;11.350;2022-10-13T05:31:13;96830.00;;;8.63;100.00
596;BME280;19946;49.306;11.350;2022-10-13T05:34:14;96825.84;;;8.73;100.00
596;BME280;19946;49.306;11.350;2022-10-13T05:37:14;96835.25;;;8.74;100.00
596;BME280;19946;49.306;11.350;2022-10-13T05:40:18;96834.50;;;8.72;100.00
596;BME280;19946;49.306;11.350;2022-10-13T05:43:20;96829.97;;;8.76;100.00
596;BME280;19946;49.306;11.350;2022-10-13T05:46:20;96830.25;;;8.84;100.00
596;BME280;19946;49.306;11.350;2022-10-13T05:49:21;96829.88;;;8.89;100.00
596;BME280;19946;49.306;11.350;2022-10-13T05:52:22;96831.16;;;9.07;100.00
596;BME280;19946;49.306;11.350;2022-10-13T05:55:26;96831.66;;;9.12;100.00
596;BME280;19946;49.306;11.350;2022-10-13T05:58:26;96830.00;;;9.11;100.00
596;BME280;19946;49.306;11.350;2022-10-13T06:01:30;96822.69;;;9.05;100.00
596;BME280;19946;49.306;11.350;2022-10-13T06:04:37;96836.81;;;9.12;100.00
596;BME280;19946;49.306;11.350;2022-10-13T06:07:38;96836.38;;;9.18;100.00
596;BME280;19946;49.306;11.350;2022-10-13T06:10:40;96842.63;;;9.27;100.00
596;BME280;19946;49.306;11.350;2022-10-13T06:13:41;96847.19;;;9.23;100.00
596;BME280;19946;49.306;11.350;2022-10-13T06:16:41;96851.22;;;9.27;100.00
596;BME280;19946;49.306;11.350;2022-10-13T06:19:41;96844.03;;;9.31;100.00
596;BME280;19946;49.306;11.350;2022-10-13T06:22:42;96846.03;;;9.27;100.00
596;BME280;19946;49.306;11.350;2022-10-13T06:25:49;96843.78;;;9.23;100.00
596;BME280;19946;49.306;11.350;2022-10-13T06:28:50;96841.31;;;9.21;100.00
596;BME280;19946;49.306;11.350;2022-10-13T06:31:51;96854.13;;;9.23;100.00
596;BME280;19946;49.306;11.350;2022-10-13T06:34:51;96846.38;;;9.23;100.00
596;BME280;19946;49.306;11.350;2022-10-13T06:37:51;96840.47;;;9.21;100.00
596;BME280;19946;49.306;11.350;2022-10-13T06:40:52;96844.75;;;9.33;100.00
596;BME280;19946;49.306;11.350;2022-10-13T06:43:55;96839.38;;;9.36;100.00
596;BME280;19946;49.306;11.350;2022-10-13T06:46:55;96848.78;;;9.37;100.00
596;BME280;19946;49.306;11.350;2022-10-13T06:49:55;96854.97;;;9.34;100.00
596;BME280;19946;49.306;11.350;2022-10-13T06:52:56;96858.72;;;9.30;100.00
596;BME280;19946;49.306;11.350;2022-10-13T06:55:57;96867.53;;;9.28;100.00
596;BME280;19946;49.306;11.350;2022-10-13T06:58:58;96863.50;;;9.24;100.00
596;BME280;19946;49.306;11.350;2022-10-13T07:01:58;96858.34;;;9.24;100.00
596;BME280;19946;49.306;11.350;2022-10-13T07:04:59;96859.91;;;9.26;100.00
596;BME280;19946;49.306;11.350;2022-10-13T07:07:59;96863.78;;;9.32;100.00
596;BME280;19946;49.306;11.350;2022-10-13T07:11:10;96866.25;;;9.33;100.00
596;BME280;19946;49.306;11.350;2022-10-13T07:14:14;96865.22;;;9.36;100.00
596;BME280;19946;49.306;11.350;2022-10-13T07:17:14;96863.44;;;9.36;100.00
596;BME280;19946;49.306;11.350;2022-10-13T07:20:15;96857.38;;;9.48;100.00
596;BME280;19946;49.306;11.350;2022-10-13T07:23:15;96851.56;;;9.69;100.00
596;BME280;19946;49.306;11.350;2022-10-13T07:26:16;96841.56;;;9.75;100.00
596;BME280;19946;49.306;11.350;2022-10-13T07:29:16;96842.38;;;9.76;100.00
596;BME280;19946;49.306;11.350;2022-10-13T07:32:17;96839.69;;;9.77;100.00
596;BME280;19946;49.306;11.350;2022-10-13T07:35:17;96835.22;;;9.79;100.00
596;BME280;19946;49.306;11.350;2022-10-13T07:38:18;96831.22;;;9.86;100.00
596;BME280;19946;49.306;11.350;2022-10-13T07:41:21;96827.13;;;9.95;100.00
596;BME280;19946;49.306;11.350;2022-10-13T07:44:21;96832.06;;;9.98;100.00
596;BME280;19946;49.306;11.350;2022-10-13T07:47:22;96835.16;;;10.03;100.00
596;BME280;19946;49.306;11.350;2022-10-13T07:50:22;96843.28;;;10.21;100.00
596;BME280;19946;49.306;11.350;2022-10-13T07:53:23;96848.91;;;10.15;100.00
596;BME280;19946;49.306;11.350;2022-10-13T07:56:23;96842.22;;;10.23;100.00
596;BME280;19946;49.306;11.350;2022-10-13T07:59:24;96847.19;;;10.38;100.00
596;BME280;19946;49.306;11.350;2022-10-13T08:02:25;96856.81;;;10.36;100.00
596;BME280;19946;49.306;11.350;2022-10-13T08:05:25;96861.75;;;10.39;100.00
596;BME280;19946;49.306;11.350;2022-10-13T08:08:26;96858.59;;;10.24;100.00
596;BME280;19946;49.306;11.350;2022-10-13T08:11:29;96861.75;;;10.28;100.00
596;BME280;19946;49.306;11.350;2022-10-13T08:14:30;96863.16;;;10.20;100.00
596;BME280;19946;49.306;11.350;2022-10-13T08:17:30;96853.00;;;10.17;100.00
596;BME280;19946;49.306;11.350;2022-10-13T08:20:31;96854.22;;;10.24;100.00
596;BME280;19946;49.306;11.350;2022-10-13T08:23:31;96846.94;;;10.30;100.00
596;BME280;19946;49.306;11.350;2022-10-13T08:26:32;96838.94;;;10.44;100.00
596;BME280;19946;49.306;11.350;2022-10-13T08:29:32;96834.31;;;10.58;100.00
596;BME280;19946;49.306;11.350;2022-10-13T08:32:33;96842.03;;;10.81;100.00
596;BME280;19946;49.306;11.350;2022-10-13T08:35:33;96842.50;;;10.86;100.00
596;BME280;19946;49.306;11.350;2022-10-13T08:38:34;96837.44;;;10.73;100.00
596;BME280;19946;49.306;11.350;2022-10-13T08:41:37;96829.75;;;10.94;100.00
596;BME280;19946;49.306;11.350;2022-10-13T08:44:44;96830.31;;;10.97;100.00
596;BME280;19946;49.306;11.350;2022-10-13T08:47:48;96835.78;;;11.15;100.00
596;BME280;19946;49.306;11.350;2022-10-13T08:50:54;96824.56;;;11.26;100.00
596;BME280;19946;49.306;11.350;2022-10-13T08:53:56;96828.84;;;11.16;100.00
596;BME280;19946;49.306;11.350;2022-10-13T08:56:57;96832.91;;;11.29;100.00
596;BME280;19946;49.306;11.350;2022-10-13T08:59:58;96834.50;;;11.21;100.00
596;BME280;19946;49.306;11.350;2022-10-13T09:03:18;96834.03;;;11.16;100.00
596;BME280;19946;49.306;11.350;2022-10-13T09:06:41;96829.78;;;11.15;100.00
596;BME280;19946;49.306;11.350;2022-10-13T09:09:49;96827.97;;;11.26;100.00
596;BME280;19946;49.306;11.350;2022-10-13T09:12:51;96831.59;;;11.35;100.00
596;BME280;19946;49.306;11.350;2022-10-13T09:15:52;96825.66;;;11.44;100.00
596;BME280;19946;49.306;11.350;2022-10-13T09:18:52;96834.38;;;11.43;100.00
596;BME280;19946;49.306;11.350;2022-10-13T09:22:26;96827.69;;;11.61;100.00
596;BME280;19946;49.306;11.350;2022-10-13T09:25:28;96822.91;;;11.78;100.00
596;BME280;19946;49.306;11.350;2022-10-13T09:28:29;96812.38;;;12.00;100.00
596;BME280;19946;49.306;11.350;2022-10-13T09:31:30;96818.19;;;11.71;100.00
596;BME280;19946;49.306;11.350;2022-10-13T09:34:32;96817.19;;;11.84;100.00
596;BME280;19946;49.306;11.350;2022-10-13T09:37:37;96818.81;;;12.05;100.00
596;BME280;19946;49.306;11.350;2022-10-13T09:40:38;96812.66;;;12.06;100.00
596;BME280;19946;49.306;11.350;2022-10-13T09:46:46;96809.03;;;11.88;100.00
596;BME280;19946;49.306;11.350;2022-10-13T09:50:31;96805.53;;;11.99;100.00
596;BME280;19946;49.306;11.350;2022-10-13T09:53:34;96803.56;;;12.22;100.00
596;BME280;19946;49.306;11.350;2022-10-13T09:56:49;96796.13;;;12.07;100.00
596;BME280;19946;49.306;11.350;2022-10-13T10:00:11;96788.66;;;12.24;100.00
596;BME280;19946;49.306;11.350;2022-10-13T10:03:34;96794.16;;;12.21;100.00
596;BME280;19946;49.306;11.350;2022-10-13T10:06:38;96784.97;;;12.17;100.00
596;BME280;19946;49.306;11.350;2022-10-13T10:09:48;96780.13;;;12.02;100.00
596;BME280;19946;49.306;11.350;2022-10-13T10:12:51;96795.06;;;12.10;100.00
596;BME280;19946;49.306;11.350;2022-10-13T10:15:55;96797.78;;;12.09;100.00
596;BME280;19946;49.306;11.350;2022-10-13T10:19:19;96799.13;;;12.03;100.00
596;BME280;19946;49.306;11.350;2022-10-13T10:29:50;96787.69;;;12.15;100.00
596;BME280;19946;49.306;11.350;2022-10-13T10:33:08;96795.69;;;12.33;100.00
596;BME280;19946;49.306;11.350;2022-10-13T10:36:14;96795.56;;;12.44;100.00
596;BME280;19946;49.306;11.350;2022-10-13T10:45:38;96780.78;;;12.35;100.00
596;BME280;19946;49.306;11.350;2022-10-13T10:48:39;96779.19;;;12.43;100.00
596;BME280;19946;49.306;11.350;2022-10-13T10:51:40;96770.69;;;12.41;100.00
596;BME280;19946;49.306;11.350;2022-10-13T10:58:01;96778.13;;;12.16;100.00
596;BME280;19946;49.306;11.350;2022-10-13T11:01:27;96771.41;;;12.13;100.00
596;BME280;19946;49.306;11.350;2022-10-13T11:04:44;96762.91;;;12.01;100.00
596;BME280;19946;49.306;11.350;2022-10-13T11:10:45;96756.03;;;11.91;100.00
596;BME280;19946;49.306;11.350;2022-10-13T11:13:53;96750.22;;;11.98;100.00
596;BME280;19946;49.306;11.350;2022-10-13T11:17:07;96737.22;;;11.98;100.00
596;BME280;19946;49.306;11.350;2022-10-13T11:26:30;96734.69;;;12.18;100.00
596;BME280;19946;49.306;11.350;2022-10-13T11:32:46;96727.56;;;12.10;100.00
596;BME280;19946;49.306;11.350;2022-10-13T11:35:55;96726.47;;;12.22;100.00
596;BME280;19946;49.306;11.350;2022-10-13T11:45:32;96706.34;;;12.64;100.00
596;BME280;19946;49.306;11.350;2022-10-13T11:55:28;96700.31;;;12.73;100.00
596;BME280;19946;49.306;11.350;2022-10-13T11:58:32;96694.16;;;12.65;100.00
596;BME280;19946;49.306;11.350;2022-10-13T12:01:33;96693.88;;;12.68;100.00
596;BME280;19946;49.306;11.350;2022-10-13T12:04:33;96697.03;;;12.42;100.00
596;BME280;19946;49.306;11.350;2022-10-13T12:07:36;96690.31;;;12.50;100.00
596;BME280;19946;49.306;11.350;2022-10-13T12:10:37;96688.41;;;12.61;100.00
596;BME280;19946;49.306;11.350;2022-10-13T12:13:45;96694.81;;;12.48;100.00
596;BME280;19946;49.306;11.350;2022-10-13T12:16:53;96696.34;;;12.50;100.00
596;BME280;19946;49.306;11.350;2022-10-13T12:19:56;96689.34;;;12.31;100.00
596;BME280;19946;49.306;11.350;2022-10-13T12:22:59;96688.28;;;12.43;100.00
596;BME280;19946;49.306;11.350;2022-10-13T12:25:59;96689.50;;;12.30;100.00
596;BME280;19946;49.306;11.350;2022-10-13T12:29:02;96689.63;;;12.38;100.00
596;BME280;19946;49.306;11.350;2022-10-13T12:32:17;96679.66;;;12.43;100.00
596;BME280;19946;49.306;11.350;2022-10-13T12:38:20;96665.16;;;12.60;100.00
596;BME280;19946;49.306;11.350;2022-10-13T12:41:25;96669.69;;;12.58;100.00
596;BME280;19946;49.306;11.350;2022-10-13T12:44:29;96669.94;;;12.55;100.00
596;BME280;19946;49.306;11.350;2022-10-13T12:50:48;96665.56;;;12.55;100.00
596;BME280;19946;49.306;11.350;2022-10-13T12:53:48;96664.19;;;12.80;100.00
596;BME280;19946;49.306;11.350;2022-10-13T12:56:50;96660.09;;;12.97;100.00
596;BME280;19946;49.306;11.350;2022-10-13T12:59:52;96656.66;;;12.96;100.00
596;BME280;19946;49.306;11.350;2022-10-13T13:03:03;96665.69;;;12.92;100.00
596;BME280;19946;49.306;11.350;2022-10-13T13:09:20;96661.88;;;12.96;100.00
596;BME280;19946;49.306;11.350;2022-10-13T13:12:25;96663.34;;;13.08;100.00
596;BME280;19946;49.306;11.350;2022-10-13T13:15:34;96655.25;;;13.11;100.00
596;BME280;19946;49.306;11.350;2022-10-13T13:18:38;96659.13;;;13.07;100.00
596;BME280;19946;49.306;11.350;2022-10-13T13:21:40;96659.66;;;12.92;100.00
596;BME280;19946;49.306;11.350;2022-10-13T13:24:41;96657.59;;;13.05;100.00
596;BME280;19946;49.306;11.350;2022-10-13T13:27:44;96652.69;;;13.02;100.00
596;BME280;19946;49.306;11.350;2022-10-13T13:30:49;96654.75;;;12.89;100.00
596;BME280;19946;49.306;11.350;2022-10-13T13:33:50;96649.13;;;12.93;100.00
596;BME280;19946;49.306;11.350;2022-10-13T13:36:51;96651.31;;;13.17;100.00
596;BME280;19946;49.306;11.350;2022-10-13T13:39:51;96654.59;;;13.19;100.00
596;BME280;19946;49.306;11.350;2022-10-13T13:42:52;96652.00;;;12.90;100.00
596;BME280;19946;49.306;11.350;2022-10-13T13:45:54;96648.50;;;12.53;100.00
596;BME280;19946;49.306;11.350;2022-10-13T13:48:54;96649.03;;;12.56;100.00
596;BME280;19946;49.306;11.350;2022-10-13T13:51:55;96649.69;;;12.77;100.00
596;BME280;19946;49.306;11.350;2022-10-13T13:54:55;96646.53;;;12.93;100.00
596;BME280;19946;49.306;11.350;2022-10-13T13:57:56;96634.63;;;13.00;100.00
596;BME280;19946;49.306;11.350;2022-10-13T14:00:58;96642.81;;;13.25;100.00
596;BME280;19946;49.306;11.350;2022-10-13T14:03:58;96633.13;;;12.98;100.00
596;BME280;19946;49.306;11.350;2022-10-13T14:06:59;96630.41;;;12.90;100.00
596;BME280;19946;49.306;11.350;2022-10-13T14:09:59;96633.28;;;12.77;100.00
596;BME280;19946;49.306;11.350;2022-10-13T14:13:00;96639.88;;;12.71;100.00
596;BME280;19946;49.306;11.350;2022-10-13T14:16:01;96627.94;;;12.88;100.00
596;BME280;19946;49.306;11.350;2022-10-13T14:19:01;96626.03;;;12.90;100.00
596;BME280;19946;49.306;11.350;2022-10-13T14:22:02;96621.50;;;12.92;100.00
596;BME280;19946;49.306;11.350;2022-10-13T14:25:04;96620.03;;;12.70;100.00
596;BME280;19946;49.306;11.350;2022-10-13T14:28:05;96618.94;;;12.73;100.00
596;BME280;19946;49.306;11.350;2022-10-13T14:31:06;96627.16;;;12.68;100.00
596;BME280;19946;49.306;11.350;2022-10-13T14:34:08;96628.38;;;12.55;100.00
596;BME280;19946;49.306;11.350;2022-10-13T14:37:10;96622.78;;;12.50;100.00
596;BME280;19946;49.306;11.350;2022-10-13T14:40:10;96627.28;;;12.57;100.00
596;BME280;19946;49.306;11.350;2022-10-13T14:43:10;96617.31;;;12.33;100.00
596;BME280;19946;49.306;11.350;2022-10-13T14:46:11;96615.94;;;12.49;100.00
596;BME280;19946;49.306;11.350;2022-10-13T14:49:11;96608.44;;;12.46;100.00
596;BME280;19946;49.306;11.350;2022-10-13T14:52:15;96620.88;;;12.42;100.00
596;BME280;19946;49.306;11.350;2022-10-13T14:55:16;96616.09;;;12.47;100.00
596;BME280;19946;49.306;11.350;2022-10-13T14:58:16;96617.84;;;12.47;100.00
596;BME280;19946;49.306;11.350;2022-10-13T15:01:17;96610.34;;;12.53;100.00
596;BME280;19946;49.306;11.350;2022-10-13T15:04:18;96616.22;;;12.65;100.00
596;BME280;19946;49.306;11.350;2022-10-13T15:07:18;96624.56;;;12.49;100.00
596;BME280;19946;49.306;11.350;2022-10-13T15:10:18;96621.69;;;12.52;100.00
596;BME280;19946;49.306;11.350;2022-10-13T15:13:19;96630.03;;;12.46;100.00
596;BME280;19946;49.306;11.350;2022-10-13T15:16:27;96619.50;;;12.48;100.00
596;BME280;19946;49.306;11.350;2022-10-13T15:19:28;96610.63;;;12.60;100.00
596;BME280;19946;49.306;11.350;2022-10-13T15:22:28;96604.72;;;12.58;100.00
596;BME280;19946;49.306;11.350;2022-10-13T15:25:28;96603.78;;;12.59;100.00
596;BME280;19946;49.306;11.350;2022-10-13T15:28:34;96612.81;;;12.64;100.00
596;BME280;19946;49.306;11.350;2022-10-13T15:31:35;96612.13;;;12.62;100.00
596;BME280;19946;49.306;11.350;2022-10-13T15:34:37;96607.06;;;12.61;100.00
596;BME280;19946;49.306;11.350;2022-10-13T15:37:38;96609.53;;;12.53;100.00
596;BME280;19946;49.306;11.350;2022-10-13T15:40:39;96602.13;;;12.58;100.00
596;BME280;19946;49.306;11.350;2022-10-13T15:43:39;96611.31;;;12.42;100.00
596;BME280;19946;49.306;11.350;2022-10-13T15:46:39;96603.53;;;12.42;100.00
596;BME280;19946;49.306;11.350;2022-10-13T15:49:40;96608.31;;;12.37;100.00
596;BME280;19946;49.306;11.350;2022-10-13T15:52:40;96607.22;;;12.40;100.00
596;BME280;19946;49.306;11.350;2022-10-13T15:55:41;96604.19;;;12.35;100.00
596;BME280;19946;49.306;11.350;2022-10-13T15:58:41;96609.00;;;12.20;100.00
596;BME280;19946;49.306;11.350;2022-10-13T16:01:41;96596.66;;;12.22;100.00
596;BME280;19946;49.306;11.350;2022-10-13T16:04:42;96602.69;;;12.13;100.00
596;BME280;19946;49.306;11.350;2022-10-13T16:07:42;96605.81;;;11.97;100.00
596;BME280;19946;49.306;11.350;2022-10-13T16:10:43;96609.50;;;11.95;100.00
596;BME280;19946;49.306;11.350;2022-10-13T16:13:47;96614.81;;;11.93;100.00
596;BME280;19946;49.306;11.350;2022-10-13T16:16:48;96614.53;;;11.87;100.00
596;BME280;19946;49.306;11.350;2022-10-13T16:19:48;96608.38;;;11.78;100.00
596;BME280;19946;49.306;11.350;2022-10-13T16:22:49;96611.06;;;11.67;100.00
596;BME280;19946;49.306;11.350;2022-10-13T16:25:49;96611.41;;;11.53;100.00
596;BME280;19946;49.306;11.350;2022-10-13T16:28:53;96606.34;;;11.51;100.00
596;BME280;19946;49.306;11.350;2022-10-13T16:31:54;96602.09;;;11.41;100.00
596;BME280;19946;49.306;11.350;2022-10-13T16:34:54;96613.41;;;11.40;100.00
596;BME280;19946;49.306;11.350;2022-10-13T16:37:56;96615.88;;;11.41;100.00
596;BME280;19946;49.306;11.350;2022-10-13T16:40:56;96622.59;;;11.44;100.00
596;BME280;19946;49.306;11.350;2022-10-13T16:43:57;96619.13;;;11.33;100.00
596;BME280;19946;49.306;11.350;2022-10-13T16:46:57;96612.44;;;11.31;100.00
596;BME280;19946;49.306;11.350;2022-10-13T16:49:59;96605.69;;;11.19;100.00
596;BME280;19946;49.306;11.350;2022-10-13T16:53:00;96615.47;;;11.15;100.00
596;BME280;19946;49.306;11.350;2022-10-13T16:56:02;96604.69;;;11.10;100.00
596;BME280;19946;49.306;11.350;2022-10-13T16:59:04;96611.91;;;11.07;100.00
596;BME280;19946;49.306;11.350;2022-10-13T17:02:05;96607.41;;;11.09;100.00
596;BME280;19946;49.306;11.350;2022-10-13T17:05:07;96603.19;;;11.08;100.00
596;BME280;19946;49.306;11.350;2022-10-13T17:08:07;96595.41;;;11.08;100.00
596;BME280;19946;49.306;11.350;2022-10-13T17:11:14;96588.31;;;11.10;100.00
596;BME280;19946;49.306;11.350;2022-10-13T17:14:15;96585.13;;;10.96;100.00
596;BME280;19946;49.306;11.350;2022-10-13T17:17:15;96597.81;;;11.00;100.00
596;BME280;19946;49.306;11.350;2022-10-13T17:20:16;96595.94;;;11.02;100.00
596;BME280;19946;49.306;11.350;2022-10-13T17:23:18;96593.97;;;10.94;100.00
596;BME280;19946;49.306;11.350;2022-10-13T17:26:18;96604.44;;;10.92;100.00